sensor_id;sensor_type;location;lat;lon;timestamp;P1;durP1;ratioP1;P2;durP2;ratioP2
8708;SDS011;4391;48.678;9.280;2023-07-29T00:00:07;4.40;;;1.90;;
8708;SDS011;4391;48.678;9.280;2023-07-29T00:02:35;4.43;;;1.70;;
8708;SDS011;4391;48.678;9.280;2023-07-29T00:05:02;5.25;;;1.77;;
8708;SDS011;4391;48.678;9.280;2023-07-29T00:07:30;3.88;;;1.80;;
8708;SDS011;4391;48.678;9.280;2023-07-29T00:09:56;6.25;;;1.80;;
8708;SDS011;4391;48.678;9.280;2023-07-29T00:12:23;6.27;;;1.97;;
8708;SDS011;4391;48.678;9.280;2023-07-29T00:14:52;4.80;;;1.60;;
8708;SDS011;4391;48.678;9.280;2023-07-29T00:17:18;3.80;;;1.60;;
8708;SDS011;4391;48.678;9.280;2023-07-29T00:19:46;5.13;;;1.83;;
8708;SDS011;4391;48.678;9.280;2023-07-29T00:22:13;4.40;;;1.90;;
8708;SDS011;4391;48.678;9.280;2023-07-29T00:24:40;3.93;;;1.70;;
8708;SDS011;4391;48.678;9.280;2023-07-29T00:27:07;4.18;;;1.70;;
8708;SDS011;4391;48.678;9.280;2023-07-29T00:29:34;4.55;;;1.90;;
8708;SDS011;4391;48.678;9.280;2023-07-29T00:32:02;4.13;;;1.90;;
8708;SDS011;4391;48.678;9.280;2023-07-29T00:34:29;4.28;;;1.90;;
8708;SDS011;4391;48.678;9.280;2023-07-29T00:36:56;3.90;;;1.70;;
8708;SDS011;4391;48.678;9.280;2023-07-29T00:39:23;6.43;;;1.75;;
8708;SDS011;4391;48.678;9.280;2023-07-29T00:41:50;4.43;;;1.63;;
8708;SDS011;4391;48.678;9.280;2023-07-29T00:44:17;4.47;;;1.80;;
8708;SDS011;4391;48.678;9.280;2023-07-29T00:46:44;6.05;;;2.05;;
8708;SDS011;4391;48.678;9.280;2023-07-29T00:49:14;4.07;;;1.60;;
8708;SDS011;4391;48.678;9.280;2023-07-29T00:51:41;4.85;;;1.90;;
8708;SDS011;4391;48.678;9.280;2023-07-29T00:54:08;4.20;;;1.75;;
8708;SDS011;4391;48.678;9.280;2023-07-29T00:56:35;6.63;;;2.90;;
8708;SDS011;4391;48.678;9.280;2023-07-29T00:59:02;4.70;;;2.08;;
8708;SDS011;4391;48.678;9.280;2023-07-29T01:01:30;4.20;;;1.90;;
8708;SDS011;4391;48.678;9.280;2023-07-29T01:03:57;4.65;;;1.90;;
8708;SDS011;4391;48.678;9.280;2023-07-29T01:06:27;5.15;;;1.80;;
8708;SDS011;4391;48.678;9.280;2023-07-29T01:09:01;4.53;;;1.92;;
8708;SDS011;4391;48.678;9.280;2023-07-29T01:11:33;5.20;;;1.90;;
8708;SDS011;4391;48.678;9.280;2023-07-29T01:14:10;4.10;;;1.70;;
8708;SDS011;4391;48.678;9.280;2023-07-29T01:16:47;4.75;;;1.80;;
8708;SDS011;4391;48.678;9.280;2023-07-29T01:19:21;4.63;;;1.85;;
8708;SDS011;4391;48.678;9.280;2023-07-29T01:22:05;3.90;;;1.85;;
8708;SDS011;4391;48.678;9.280;2023-07-29T01:24:35;5.70;;;2.10;;
8708;SDS011;4391;48.678;9.280;2023-07-29T01:27:02;4.53;;;1.90;;
8708;SDS011;4391;48.678;9.280;2023-07-29T01:29:30;5.35;;;1.73;;
8708;SDS011;4391;48.678;9.280;2023-07-29T01:31:58;4.63;;;2.00;;
8708;SDS011;4391;48.678;9.280;2023-07-29T01:34:37;4.60;;;1.65;;
8708;SDS011;4391;48.678;9.280;2023-07-29T01:37:08;5.30;;;2.38;;
8708;SDS011;4391;48.678;9.280;2023-07-29T01:39:38;4.00;;;1.87;;
8708;SDS011;4391;48.678;9.280;2023-07-29T01:42:06;5.88;;;1.58;;
8708;SDS011;4391;48.678;9.280;2023-07-29T01:44:33;5.20;;;1.70;;
8708;SDS011;4391;48.678;9.280;2023-07-29T01:47:02;5.03;;;1.65;;
8708;SDS011;4391;48.678;9.280;2023-07-29T01:49:29;4.82;;;2.05;;
8708;SDS011;4391;48.678;9.280;2023-07-29T01:51:55;6.10;;;1.90;;
8708;SDS011;4391;48.678;9.280;2023-07-29T01:54:22;5.38;;;1.60;;
8708;SDS011;4391;48.678;9.280;2023-07-29T01:56:51;4.68;;;1.70;;
8708;SDS011;4391;48.678;9.280;2023-07-29T01:59:18;4.20;;;1.90;;
8708;SDS011;4391;48.678;9.280;2023-07-29T02:01:45;3.95;;;1.70;;
8708;SDS011;4391;48.678;9.280;2023-07-29T02:04:12;5.77;;;2.40;;
8708;SDS011;4391;48.678;9.280;2023-07-29T02:06:39;4.38;;;2.05;;
8708;SDS011;4391;48.678;9.280;2023-07-29T02:09:06;5.28;;;1.90;;
8708;SDS011;4391;48.678;9.280;2023-07-29T02:11:32;5.80;;;2.15;;
8708;SDS011;4391;48.678;9.280;2023-07-29T02:14:01;4.22;;;1.92;;
8708;SDS011;4391;48.678;9.280;2023-07-29T02:16:28;4.57;;;1.97;;
8708;SDS011;4391;48.678;9.280;2023-07-29T02:18:55;7.63;;;2.03;;
8708;SDS011;4391;48.678;9.280;2023-07-29T02:21:22;6.25;;;1.90;;
8708;SDS011;4391;48.678;9.280;2023-07-29T02:23:49;4.38;;;1.80;;
8708;SDS011;4391;48.678;9.280;2023-07-29T02:26:16;4.63;;;2.00;;
8708;SDS011;4391;48.678;9.280;2023-07-29T02:28:43;4.17;;;2.00;;
8708;SDS011;4391;48.678;9.280;2023-07-29T02:31:15;5.55;;;1.75;;
8708;SDS011;4391;48.678;9.280;2023-07-29T02:33:43;4.60;;;1.60;;
8708;SDS011;4391;48.678;9.280;2023-07-29T02:36:11;3.53;;;1.70;;
8708;SDS011;4391;48.678;9.280;2023-07-29T02:38:38;4.38;;;2.10;;
8708;SDS011;4391;48.678;9.280;2023-07-29T02:41:05;5.23;;;2.30;;
8708;SDS011;4391;48.678;9.280;2023-07-29T02:43:34;3.85;;;1.63;;
8708;SDS011;4391;48.678;9.280;2023-07-29T02:46:00;5.28;;;1.73;;
8708;SDS011;4391;48.678;9.280;2023-07-29T02:48:29;5.78;;;1.95;;
8708;SDS011;4391;48.678;9.280;2023-07-29T02:50:57;3.55;;;1.83;;
8708;SDS011;4391;48.678;9.280;2023-07-29T02:53:24;5.17;;;1.60;;
8708;SDS011;4391;48.678;9.280;2023-07-29T02:55:51;4.28;;;1.90;;
8708;SDS011;4391;48.678;9.280;2023-07-29T02:58:18;3.85;;;1.58;;
8708;SDS011;4391;48.678;9.280;2023-07-29T03:00:45;3.53;;;1.40;;
8708;SDS011;4391;48.678;9.280;2023-07-29T03:03:13;3.92;;;1.40;;
8708;SDS011;4391;48.678;9.280;2023-07-29T03:05:41;3.80;;;1.50;;
8708;SDS011;4391;48.678;9.280;2023-07-29T03:08:08;3.40;;;1.33;;
8708;SDS011;4391;48.678;9.280;2023-07-29T03:10:35;7.97;;;1.67;;
8708;SDS011;4391;48.678;9.280;2023-07-29T03:13:03;3.53;;;1.50;;
8708;SDS011;4391;48.678;9.280;2023-07-29T03:15:31;3.42;;;1.42;;
8708;SDS011;4391;48.678;9.280;2023-07-29T03:17:59;5.83;;;1.40;;
8708;SDS011;4391;48.678;9.280;2023-07-29T03:20:26;3.63;;;1.30;;
8708;SDS011;4391;48.678;9.280;2023-07-29T03:22:54;3.60;;;1.58;;
8708;SDS011;4391;48.678;9.280;2023-07-29T03:25:21;5.78;;;1.38;;
8708;SDS011;4391;48.678;9.280;2023-07-29T03:27:48;4.85;;;1.33;;
8708;SDS011;4391;48.678;9.280;2023-07-29T03:30:15;5.30;;;1.50;;
8708;SDS011;4391;48.678;9.280;2023-07-29T03:32:45;3.22;;;1.48;;
8708;SDS011;4391;48.678;9.280;2023-07-29T03:35:11;3.55;;;1.63;;
8708;SDS011;4391;48.678;9.280;2023-07-29T03:37:39;4.03;;;1.52;;
8708;SDS011;4391;48.678;9.280;2023-07-29T03:40:07;6.55;;;1.45;;
8708;SDS011;4391;48.678;9.280;2023-07-29T03:42:35;3.90;;;1.77;;
8708;SDS011;4391;48.678;9.280;2023-07-29T03:45:02;2.88;;;1.38;;
8708;SDS011;4391;48.678;9.280;2023-07-29T03:47:29;4.03;;;1.45;;
8708;SDS011;4391;48.678;9.280;2023-07-29T03:49:56;3.92;;;1.63;;
8708;SDS011;4391;48.678;9.280;2023-07-29T03:52:23;3.63;;;1.50;;
8708;SDS011;4391;48.678;9.280;2023-07-29T03:54:50;4.17;;;1.37;;
8708;SDS011;4391;48.678;9.280;2023-07-29T03:57:18;3.47;;;1.60;;
8708;SDS011;4391;48.678;9.280;2023-07-29T03:59:45;6.28;;;1.67;;
8708;SDS011;4391;48.678;9.280;2023-07-29T04:02:12;4.28;;;1.35;;
8708;SDS011;4391;48.678;9.280;2023-07-29T04:04:39;5.57;;;1.63;;
8708;SDS011;4391;48.678;9.280;2023-07-29T04:07:07;4.47;;;1.33;;
8708;SDS011;4391;48.678;9.280;2023-07-29T04:09:34;3.47;;;1.33;;
8708;SDS011;4391;48.678;9.280;2023-07-29T04:12:00;4.22;;;1.50;;
8708;SDS011;4391;48.678;9.280;2023-07-29T04:14:29;2.95;;;1.33;;
8708;SDS011;4391;48.678;9.280;2023-07-29T04:16:56;4.68;;;1.50;;
8708;SDS011;4391;48.678;9.280;2023-07-29T04:19:23;5.37;;;1.40;;
8708;SDS011;4391;48.678;9.280;2023-07-29T04:21:49;2.95;;;1.35;;
8708;SDS011;4391;48.678;9.280;2023-07-29T04:24:16;3.90;;;1.45;;
8708;SDS011;4391;48.678;9.280;2023-07-29T04:26:45;3.85;;;1.42;;
8708;SDS011;4391;48.678;9.280;2023-07-29T04:29:12;5.20;;;1.45;;
8708;SDS011;4391;48.678;9.280;2023-07-29T04:31:40;3.27;;;1.40;;
8708;SDS011;4391;48.678;9.280;2023-07-29T04:34:07;4.38;;;1.50;;
8708;SDS011;4391;48.678;9.280;2023-07-29T04:36:35;3.83;;;1.83;;
8708;SDS011;4391;48.678;9.280;2023-07-29T04:39:02;4.70;;;1.73;;
8708;SDS011;4391;48.678;9.280;2023-07-29T04:41:29;4.75;;;1.55;;
8708;SDS011;4391;48.678;9.280;2023-07-29T04:43:55;3.50;;;1.70;;
8708;SDS011;4391;48.678;9.280;2023-07-29T04:46:22;5.05;;;1.80;;
8708;SDS011;4391;48.678;9.280;2023-07-29T04:48:50;7.53;;;2.25;;
8708;SDS011;4391;48.678;9.280;2023-07-29T04:51:17;6.68;;;2.40;;
8708;SDS011;4391;48.678;9.280;2023-07-29T04:53:44;5.72;;;2.78;;
8708;SDS011;4391;48.678;9.280;2023-07-29T04:56:11;7.40;;;2.10;;
8708;SDS011;4391;48.678;9.280;2023-07-29T04:58:38;6.13;;;2.40;;
8708;SDS011;4391;48.678;9.280;2023-07-29T05:01:06;5.85;;;2.30;;
8708;SDS011;4391;48.678;9.280;2023-07-29T05:03:33;10.10;;;2.35;;
8708;SDS011;4391;48.678;9.280;2023-07-29T05:06:01;6.05;;;2.33;;
8708;SDS011;4391;48.678;9.280;2023-07-29T05:08:29;5.47;;;2.27;;
8708;SDS011;4391;48.678;9.280;2023-07-29T05:10:56;6.43;;;1.90;;
8708;SDS011;4391;48.678;9.280;2023-07-29T05:13:24;7.07;;;2.53;;
8708;SDS011;4391;48.678;9.280;2023-07-29T05:15:51;5.93;;;2.05;;
8708;SDS011;4391;48.678;9.280;2023-07-29T05:18:18;7.60;;;2.80;;
8708;SDS011;4391;48.678;9.280;2023-07-29T05:20:46;6.33;;;2.30;;
8708;SDS011;4391;48.678;9.280;2023-07-29T05:23:15;9.43;;;2.40;;
8708;SDS011;4391;48.678;9.280;2023-07-29T05:25:41;6.53;;;2.35;;
8708;SDS011;4391;48.678;9.280;2023-07-29T05:28:08;5.47;;;2.40;;
8708;SDS011;4391;48.678;9.280;2023-07-29T05:30:35;6.05;;;1.92;;
8708;SDS011;4391;48.678;9.280;2023-07-29T05:33:04;8.00;;;1.93;;
8708;SDS011;4391;48.678;9.280;2023-07-29T05:35:32;6.13;;;1.63;;
8708;SDS011;4391;48.678;9.280;2023-07-29T05:37:59;6.05;;;1.58;;
8708;SDS011;4391;48.678;9.280;2023-07-29T05:40:29;4.68;;;1.50;;
8708;SDS011;4391;48.678;9.280;2023-07-29T05:42:56;4.20;;;1.60;;
8708;SDS011;4391;48.678;9.280;2023-07-29T05:45:23;5.07;;;1.53;;
8708;SDS011;4391;48.678;9.280;2023-07-29T05:47:50;4.35;;;1.42;;
8708;SDS011;4391;48.678;9.280;2023-07-29T05:50:16;3.97;;;1.50;;
8708;SDS011;4391;48.678;9.280;2023-07-29T05:52:43;3.78;;;1.58;;
8708;SDS011;4391;48.678;9.280;2023-07-29T05:55:10;4.05;;;1.50;;
8708;SDS011;4391;48.678;9.280;2023-07-29T05:57:38;3.20;;;1.40;;
8708;SDS011;4391;48.678;9.280;2023-07-29T06:00:05;4.47;;;1.27;;
8708;SDS011;4391;48.678;9.280;2023-07-29T06:02:33;4.50;;;1.50;;
8708;SDS011;4391;48.678;9.280;2023-07-29T06:05:00;5.45;;;1.50;;
8708;SDS011;4391;48.678;9.280;2023-07-29T06:07:28;4.55;;;1.42;;
8708;SDS011;4391;48.678;9.280;2023-07-29T06:09:55;3.60;;;1.33;;
8708;SDS011;4391;48.678;9.280;2023-07-29T06:12:23;5.35;;;1.55;;
8708;SDS011;4391;48.678;9.280;2023-07-29T06:14:51;8.00;;;1.38;;
8708;SDS011;4391;48.678;9.280;2023-07-29T06:17:18;5.10;;;1.40;;
8708;SDS011;4391;48.678;9.280;2023-07-29T06:19:45;3.75;;;1.27;;
8708;SDS011;4391;48.678;9.280;2023-07-29T06:22:11;3.90;;;1.27;;
8708;SDS011;4391;48.678;9.280;2023-07-29T06:24:38;3.00;;;1.02;;
8708;SDS011;4391;48.678;9.280;2023-07-29T06:27:05;4.10;;;1.05;;
8708;SDS011;4391;48.678;9.280;2023-07-29T06:29:32;8.25;;;1.40;;
8708;SDS011;4391;48.678;9.280;2023-07-29T06:32:00;3.95;;;1.27;;
8708;SDS011;4391;48.678;9.280;2023-07-29T06:34:27;5.93;;;1.50;;
8708;SDS011;4391;48.678;9.280;2023-07-29T06:36:54;4.93;;;1.23;;
8708;SDS011;4391;48.678;9.280;2023-07-29T06:39:21;4.00;;;1.25;;
8708;SDS011;4391;48.678;9.280;2023-07-29T06:41:48;4.30;;;1.40;;
8708;SDS011;4391;48.678;9.280;2023-07-29T06:44:14;7.13;;;2.00;;
8708;SDS011;4391;48.678;9.280;2023-07-29T06:46:41;9.33;;;2.17;;
8708;SDS011;4391;48.678;9.280;2023-07-29T06:49:09;6.15;;;1.90;;
8708;SDS011;4391;48.678;9.280;2023-07-29T06:51:36;7.38;;;1.20;;
8708;SDS011;4391;48.678;9.280;2023-07-29T06:54:03;6.93;;;1.70;;
8708;SDS011;4391;48.678;9.280;2023-07-29T06:56:30;6.93;;;1.60;;
8708;SDS011;4391;48.678;9.280;2023-07-29T06:58:56;4.57;;;1.60;;
8708;SDS011;4391;48.678;9.280;2023-07-29T07:01:23;5.95;;;2.15;;
8708;SDS011;4391;48.678;9.280;2023-07-29T07:03:50;6.60;;;1.80;;
8708;SDS011;4391;48.678;9.280;2023-07-29T07:06:20;4.80;;;1.40;;
8708;SDS011;4391;48.678;9.280;2023-07-29T07:08:49;4.22;;;1.77;;
8708;SDS011;4391;48.678;9.280;2023-07-29T07:11:16;4.80;;;2.30;;
8708;SDS011;4391;48.678;9.280;2023-07-29T07:13:44;4.47;;;1.48;;
8708;SDS011;4391;48.678;9.280;2023-07-29T07:16:11;4.30;;;1.33;;
8708;SDS011;4391;48.678;9.280;2023-07-29T07:18:37;5.25;;;1.38;;
8708;SDS011;4391;48.678;9.280;2023-07-29T07:21:04;3.95;;;0.88;;
8708;SDS011;4391;48.678;9.280;2023-07-29T07:23:32;6.57;;;0.87;;
8708;SDS011;4391;48.678;9.280;2023-07-29T07:25:59;3.85;;;0.80;;
8708;SDS011;4391;48.678;9.280;2023-07-29T07:28:26;3.60;;;0.55;;
8708;SDS011;4391;48.678;9.280;2023-07-29T07:30:53;2.97;;;0.70;;
8708;SDS011;4391;48.678;9.280;2023-07-29T07:33:20;4.15;;;0.90;;
8708;SDS011;4391;48.678;9.280;2023-07-29T07:35:47;2.77;;;0.50;;
8708;SDS011;4391;48.678;9.280;2023-07-29T07:38:14;4.50;;;0.60;;
8708;SDS011;4391;48.678;9.280;2023-07-29T07:40:42;3.38;;;0.70;;
8708;SDS011;4391;48.678;9.280;2023-07-29T07:43:19;2.38;;;0.70;;
8708;SDS011;4391;48.678;9.280;2023-07-29T07:45:46;2.08;;;0.68;;
8708;SDS011;4391;48.678;9.280;2023-07-29T07:48:12;2.37;;;0.90;;
8708;SDS011;4391;48.678;9.280;2023-07-29T07:50:41;2.70;;;0.80;;
8708;SDS011;4391;48.678;9.280;2023-07-29T07:53:08;3.28;;;0.77;;
8708;SDS011;4391;48.678;9.280;2023-07-29T07:55:35;2.88;;;1.05;;
8708;SDS011;4391;48.678;9.280;2023-07-29T07:58:03;3.10;;;1.27;;
8708;SDS011;4391;48.678;9.280;2023-07-29T08:00:30;4.57;;;1.30;;
8708;SDS011;4391;48.678;9.280;2023-07-29T08:02:56;6.07;;;1.65;;
8708;SDS011;4391;48.678;9.280;2023-07-29T08:05:23;7.22;;;1.50;;
8708;SDS011;4391;48.678;9.280;2023-07-29T08:07:51;4.13;;;1.63;;
8708;SDS011;4391;48.678;9.280;2023-07-29T08:10:19;4.72;;;2.00;;
8708;SDS011;4391;48.678;9.280;2023-07-29T08:12:50;5.03;;;2.27;;
8708;SDS011;4391;48.678;9.280;2023-07-29T08:15:20;9.40;;;2.05;;
8708;SDS011;4391;48.678;9.280;2023-07-29T08:17:47;5.68;;;1.90;;
8708;SDS011;4391;48.678;9.280;2023-07-29T08:20:14;6.40;;;1.92;;
8708;SDS011;4391;48.678;9.280;2023-07-29T08:22:41;5.03;;;1.90;;
8708;SDS011;4391;48.678;9.280;2023-07-29T08:25:08;4.83;;;1.87;;
8708;SDS011;4391;48.678;9.280;2023-07-29T08:27:35;5.80;;;2.08;;
8708;SDS011;4391;48.678;9.280;2023-07-29T08:30:02;4.82;;;1.88;;
8708;SDS011;4391;48.678;9.280;2023-07-29T08:32:31;5.20;;;2.10;;
8708;SDS011;4391;48.678;9.280;2023-07-29T08:35:01;4.30;;;2.10;;
8708;SDS011;4391;48.678;9.280;2023-07-29T08:37:28;3.80;;;1.63;;
8708;SDS011;4391;48.678;9.280;2023-07-29T08:39:56;7.72;;;2.20;;
8708;SDS011;4391;48.678;9.280;2023-07-29T08:42:26;5.45;;;1.90;;
8708;SDS011;4391;48.678;9.280;2023-07-29T08:44:57;4.88;;;1.73;;
8708;SDS011;4391;48.678;9.280;2023-07-29T08:47:35;5.25;;;2.20;;
8708;SDS011;4391;48.678;9.280;2023-07-29T08:50:02;5.43;;;1.87;;
8708;SDS011;4391;48.678;9.280;2023-07-29T08:52:30;5.65;;;1.73;;
8708;SDS011;4391;48.678;9.280;2023-07-29T08:55:00;5.78;;;1.90;;
8708;SDS011;4391;48.678;9.280;2023-07-29T08:57:27;6.43;;;1.73;;
8708;SDS011;4391;48.678;9.280;2023-07-29T08:59:54;4.53;;;1.80;;
8708;SDS011;4391;48.678;9.280;2023-07-29T09:02:22;4.03;;;1.40;;
8708;SDS011;4391;48.678;9.280;2023-07-29T09:04:51;4.47;;;1.50;;
8708;SDS011;4391;48.678;9.280;2023-07-29T09:07:18;3.35;;;1.15;;
8708;SDS011;4391;48.678;9.280;2023-07-29T09:09:45;3.22;;;1.27;;
8708;SDS011;4391;48.678;9.280;2023-07-29T09:12:12;4.60;;;1.30;;
8708;SDS011;4391;48.678;9.280;2023-07-29T09:14:39;3.20;;;1.50;;
8708;SDS011;4391;48.678;9.280;2023-07-29T09:17:07;2.97;;;1.20;;
8708;SDS011;4391;48.678;9.280;2023-07-29T09:19:35;2.88;;;1.23;;
8708;SDS011;4391;48.678;9.280;2023-07-29T09:22:03;3.72;;;1.48;;
8708;SDS011;4391;48.678;9.280;2023-07-29T09:24:30;4.55;;;1.10;;
8708;SDS011;4391;48.678;9.280;2023-07-29T09:26:59;3.47;;;1.47;;
8708;SDS011;4391;48.678;9.280;2023-07-29T09:29:27;3.38;;;1.35;;
8708;SDS011;4391;48.678;9.280;2023-07-29T09:31:56;3.90;;;1.40;;
8708;SDS011;4391;48.678;9.280;2023-07-29T09:34:44;3.00;;;1.38;;
8708;SDS011;4391;48.678;9.280;2023-07-29T09:37:16;4.38;;;1.40;;
8708;SDS011;4391;48.678;9.280;2023-07-29T09:39:44;2.60;;;1.10;;
8708;SDS011;4391;48.678;9.280;2023-07-29T09:42:16;3.13;;;1.30;;
8708;SDS011;4391;48.678;9.280;2023-07-29T09:44:44;3.13;;;1.23;;
8708;SDS011;4391;48.678;9.280;2023-07-29T09:47:18;2.78;;;1.20;;
8708;SDS011;4391;48.678;9.280;2023-07-29T09:49:46;3.03;;;1.15;;
8708;SDS011;4391;48.678;9.280;2023-07-29T09:52:15;3.07;;;1.10;;
8708;SDS011;4391;48.678;9.280;2023-07-29T09:54:42;3.63;;;1.10;;
8708;SDS011;4391;48.678;9.280;2023-07-29T09:57:10;2.70;;;1.10;;
8708;SDS011;4391;48.678;9.280;2023-07-29T09:59:37;2.95;;;1.20;;
8708;SDS011;4391;48.678;9.280;2023-07-29T10:02:04;3.08;;;1.17;;
8708;SDS011;4391;48.678;9.280;2023-07-29T10:04:35;4.80;;;1.73;;
8708;SDS011;4391;48.678;9.280;2023-07-29T10:07:02;4.20;;;1.45;;
8708;SDS011;4391;48.678;9.280;2023-07-29T10:09:31;3.05;;;1.20;;
8708;SDS011;4391;48.678;9.280;2023-07-29T10:11:59;4.32;;;1.30;;
8708;SDS011;4391;48.678;9.280;2023-07-29T10:14:26;2.83;;;1.30;;
8708;SDS011;4391;48.678;9.280;2023-07-29T10:16:54;4.17;;;1.30;;
8708;SDS011;4391;48.678;9.280;2023-07-29T10:19:24;3.65;;;1.23;;
8708;SDS011;4391;48.678;9.280;2023-07-29T10:21:52;4.43;;;1.38;;
8708;SDS011;4391;48.678;9.280;2023-07-29T10:24:22;4.78;;;1.10;;
8708;SDS011;4391;48.678;9.280;2023-07-29T10:26:58;5.10;;;1.40;;
8708;SDS011;4391;48.678;9.280;2023-07-29T10:29:28;3.10;;;1.27;;
8708;SDS011;4391;48.678;9.280;2023-07-29T10:31:57;4.30;;;1.25;;
8708;SDS011;4391;48.678;9.280;2023-07-29T10:34:27;3.58;;;1.20;;
8708;SDS011;4391;48.678;9.280;2023-07-29T10:36:55;3.42;;;1.65;;
8708;SDS011;4391;48.678;9.280;2023-07-29T10:39:23;3.42;;;1.20;;
8708;SDS011;4391;48.678;9.280;2023-07-29T10:42:01;3.93;;;1.47;;
8708;SDS011;4391;48.678;9.280;2023-07-29T10:44:47;3.75;;;1.40;;
8708;SDS011;4391;48.678;9.280;2023-07-29T10:47:21;3.80;;;1.25;;
8708;SDS011;4391;48.678;9.280;2023-07-29T10:49:49;3.85;;;1.35;;
8708;SDS011;4391;48.678;9.280;2023-07-29T10:52:29;3.60;;;1.45;;
8708;SDS011;4391;48.678;9.280;2023-07-29T10:54:57;2.90;;;1.10;;
8708;SDS011;4391;48.678;9.280;2023-07-29T10:57:33;3.50;;;1.27;;
8708;SDS011;4391;48.678;9.280;2023-07-29T11:00:02;2.72;;;1.10;;
8708;SDS011;4391;48.678;9.280;2023-07-29T11:02:31;3.63;;;1.50;;
8708;SDS011;4391;48.678;9.280;2023-07-29T11:04:59;3.40;;;1.30;;
8708;SDS011;4391;48.678;9.280;2023-07-29T11:07:30;5.67;;;1.30;;
8708;SDS011;4391;48.678;9.280;2023-07-29T11:10:08;4.35;;;1.60;;
8708;SDS011;4391;48.678;9.280;2023-07-29T11:12:40;4.70;;;1.40;;
8708;SDS011;4391;48.678;9.280;2023-07-29T11:15:18;3.17;;;1.23;;
8708;SDS011;4391;48.678;9.280;2023-07-29T11:17:50;2.97;;;1.30;;
8708;SDS011;4391;48.678;9.280;2023-07-29T11:20:19;3.20;;;1.40;;
8708;SDS011;4391;48.678;9.280;2023-07-29T11:22:46;3.85;;;1.40;;
8708;SDS011;4391;48.678;9.280;2023-07-29T11:25:14;3.05;;;1.17;;
8708;SDS011;4391;48.678;9.280;2023-07-29T11:27:43;5.35;;;1.40;;
8708;SDS011;4391;48.678;9.280;2023-07-29T11:30:11;3.47;;;1.42;;
8708;SDS011;4391;48.678;9.280;2023-07-29T11:32:40;4.40;;;1.90;;
8708;SDS011;4391;48.678;9.280;2023-07-29T11:35:08;5.03;;;1.60;;
8708;SDS011;4391;48.678;9.280;2023-07-29T11:37:40;4.10;;;1.55;;
8708;SDS011;4391;48.678;9.280;2023-07-29T11:40:09;3.22;;;1.50;;
8708;SDS011;4391;48.678;9.280;2023-07-29T11:42:39;4.07;;;1.60;;
8708;SDS011;4391;48.678;9.280;2023-07-29T11:45:08;3.23;;;1.37;;
8708;SDS011;4391;48.678;9.280;2023-07-29T11:47:36;4.25;;;1.60;;
8708;SDS011;4391;48.678;9.280;2023-07-29T11:50:03;4.72;;;1.42;;
8708;SDS011;4391;48.678;9.280;2023-07-29T11:52:32;3.60;;;1.58;;
8708;SDS011;4391;48.678;9.280;2023-07-29T11:54:59;3.38;;;1.33;;
8708;SDS011;4391;48.678;9.280;2023-07-29T11:57:28;3.50;;;1.27;;
8708;SDS011;4391;48.678;9.280;2023-07-29T11:59:55;3.08;;;1.38;;
8708;SDS011;4391;48.678;9.280;2023-07-29T12:02:23;3.10;;;1.38;;
8708;SDS011;4391;48.678;9.280;2023-07-29T12:04:51;3.28;;;1.45;;
8708;SDS011;4391;48.678;9.280;2023-07-29T12:07:18;4.55;;;2.05;;
8708;SDS011;4391;48.678;9.280;2023-07-29T12:09:46;3.40;;;1.60;;
8708;SDS011;4391;48.678;9.280;2023-07-29T12:12:13;3.85;;;1.45;;
8708;SDS011;4391;48.678;9.280;2023-07-29T12:14:43;3.95;;;1.60;;
8708;SDS011;4391;48.678;9.280;2023-07-29T12:17:11;4.47;;;1.77;;
8708;SDS011;4391;48.678;9.280;2023-07-29T12:19:40;4.65;;;1.40;;
8708;SDS011;4391;48.678;9.280;2023-07-29T12:22:08;4.93;;;1.50;;
8708;SDS011;4391;48.678;9.280;2023-07-29T12:24:36;5.35;;;1.60;;
8708;SDS011;4391;48.678;9.280;2023-07-29T12:27:09;4.05;;;1.58;;
8708;SDS011;4391;48.678;9.280;2023-07-29T12:29:39;4.70;;;1.33;;
8708;SDS011;4391;48.678;9.280;2023-07-29T12:32:07;3.40;;;1.50;;
8708;SDS011;4391;48.678;9.280;2023-07-29T12:34:35;4.10;;;1.30;;
8708;SDS011;4391;48.678;9.280;2023-07-29T12:37:06;3.17;;;1.40;;
8708;SDS011;4391;48.678;9.280;2023-07-29T12:39:33;3.47;;;1.20;;
8708;SDS011;4391;48.678;9.280;2023-07-29T12:42:02;4.68;;;1.20;;
8708;SDS011;4391;48.678;9.280;2023-07-29T12:44:29;3.65;;;1.20;;
8708;SDS011;4391;48.678;9.280;2023-07-29T12:46:57;3.53;;;1.25;;
8708;SDS011;4391;48.678;9.280;2023-07-29T12:49:24;3.77;;;1.43;;
8708;SDS011;4391;48.678;9.280;2023-07-29T12:51:53;3.63;;;1.30;;
8708;SDS011;4391;48.678;9.280;2023-07-29T12:54:21;3.30;;;1.10;;
8708;SDS011;4391;48.678;9.280;2023-07-29T12:56:48;4.45;;;1.45;;
8708;SDS011;4391;48.678;9.280;2023-07-29T12:59:15;3.08;;;1.27;;
8708;SDS011;4391;48.678;9.280;2023-07-29T13:01:42;4.13;;;1.50;;
8708;SDS011;4391;48.678;9.280;2023-07-29T13:04:09;2.97;;;1.27;;
8708;SDS011;4391;48.678;9.280;2023-07-29T13:06:36;2.88;;;1.23;;
8708;SDS011;4391;48.678;9.280;2023-07-29T13:09:03;2.88;;;1.30;;
8708;SDS011;4391;48.678;9.280;2023-07-29T13:11:31;3.55;;;1.45;;
8708;SDS011;4391;48.678;9.280;2023-07-29T13:13:58;2.93;;;1.37;;
8708;SDS011;4391;48.678;9.280;2023-07-29T13:16:26;3.75;;;1.30;;
8708;SDS011;4391;48.678;9.280;2023-07-29T13:18:53;3.03;;;1.40;;
8708;SDS011;4391;48.678;9.280;2023-07-29T13:21:19;4.20;;;1.30;;
8708;SDS011;4391;48.678;9.280;2023-07-29T13:23:46;3.40;;;1.40;;
8708;SDS011;4391;48.678;9.280;2023-07-29T13:26:13;3.43;;;1.50;;
8708;SDS011;4391;48.678;9.280;2023-07-29T13:28:41;4.78;;;1.60;;
8708;SDS011;4391;48.678;9.280;2023-07-29T13:31:08;5.25;;;1.40;;
8708;SDS011;4391;48.678;9.280;2023-07-29T13:33:35;6.53;;;1.45;;
8708;SDS011;4391;48.678;9.280;2023-07-29T13:36:02;4.07;;;1.60;;
8708;SDS011;4391;48.678;9.280;2023-07-29T13:38:29;3.10;;;1.00;;
8708;SDS011;4391;48.678;9.280;2023-07-29T13:40:56;3.38;;;1.58;;
8708;SDS011;4391;48.678;9.280;2023-07-29T13:43:23;3.50;;;1.40;;
8708;SDS011;4391;48.678;9.280;2023-07-29T13:45:51;4.57;;;1.25;;
8708;SDS011;4391;48.678;9.280;2023-07-29T13:48:18;2.80;;;1.30;;
8708;SDS011;4391;48.678;9.280;2023-07-29T13:50:45;3.23;;;1.30;;
8708;SDS011;4391;48.678;9.280;2023-07-29T13:53:12;3.58;;;1.33;;
8708;SDS011;4391;48.678;9.280;2023-07-29T13:55:39;3.47;;;1.33;;
8708;SDS011;4391;48.678;9.280;2023-07-29T13:58:05;3.33;;;1.50;;
8708;SDS011;4391;48.678;9.280;2023-07-29T14:00:32;3.03;;;1.13;;
8708;SDS011;4391;48.678;9.280;2023-07-29T14:03:00;3.17;;;1.50;;
8708;SDS011;4391;48.678;9.280;2023-07-29T14:05:27;3.40;;;1.20;;
8708;SDS011;4391;48.678;9.280;2023-07-29T14:07:54;3.92;;;1.60;;
8708;SDS011;4391;48.678;9.280;2023-07-29T14:10:21;3.10;;;1.40;;
8708;SDS011;4391;48.678;9.280;2023-07-29T14:12:48;3.17;;;1.30;;
8708;SDS011;4391;48.678;9.280;2023-07-29T14:15:15;3.07;;;1.20;;
8708;SDS011;4391;48.678;9.280;2023-07-29T14:17:42;3.70;;;1.10;;
8708;SDS011;4391;48.678;9.280;2023-07-29T14:20:11;3.72;;;1.42;;
8708;SDS011;4391;48.678;9.280;2023-07-29T14:22:38;4.82;;;1.23;;
8708;SDS011;4391;48.678;9.280;2023-07-29T14:25:05;3.53;;;1.40;;
8708;SDS011;4391;48.678;9.280;2023-07-29T14:27:33;3.27;;;1.40;;
8708;SDS011;4391;48.678;9.280;2023-07-29T14:30:00;3.08;;;1.17;;
8708;SDS011;4391;48.678;9.280;2023-07-29T14:32:27;3.38;;;1.40;;
8708;SDS011;4391;48.678;9.280;2023-07-29T14:34:54;3.70;;;1.33;;
8708;SDS011;4391;48.678;9.280;2023-07-29T14:37:22;3.42;;;1.63;;
8708;SDS011;4391;48.678;9.280;2023-07-29T14:39:49;2.93;;;1.10;;
8708;SDS011;4391;48.678;9.280;2023-07-29T14:42:16;3.28;;;1.40;;
8708;SDS011;4391;48.678;9.280;2023-07-29T14:44:43;3.78;;;1.30;;
8708;SDS011;4391;48.678;9.280;2023-07-29T14:47:09;3.40;;;1.38;;
8708;SDS011;4391;48.678;9.280;2023-07-29T14:49:36;3.60;;;1.50;;
8708;SDS011;4391;48.678;9.280;2023-07-29T14:52:03;3.60;;;1.50;;
8708;SDS011;4391;48.678;9.280;2023-07-29T14:54:32;3.35;;;1.30;;
8708;SDS011;4391;48.678;9.280;2023-07-29T14:56:59;3.30;;;1.33;;
8708;SDS011;4391;48.678;9.280;2023-07-29T14:59:26;3.42;;;1.45;;
8708;SDS011;4391;48.678;9.280;2023-07-29T15:01:52;3.63;;;1.35;;
8708;SDS011;4391;48.678;9.280;2023-07-29T15:04:19;3.83;;;1.50;;
8708;SDS011;4391;48.678;9.280;2023-07-29T15:06:46;3.35;;;1.30;;
8708;SDS011;4391;48.678;9.280;2023-07-29T15:09:13;4.03;;;1.90;;
8708;SDS011;4391;48.678;9.280;2023-07-29T15:11:41;3.05;;;1.40;;
8708;SDS011;4391;48.678;9.280;2023-07-29T15:14:08;3.63;;;1.60;;
8708;SDS011;4391;48.678;9.280;2023-07-29T15:16:35;4.87;;;1.53;;
8708;SDS011;4391;48.678;9.280;2023-07-29T15:19:04;3.33;;;1.40;;